Time;durP1;ratioP1;P1;durP2;ratioP2;P2;SDS_P1;SDS_P2;PMS_P1;PMS_P2;Temp;Humidity;BMP_temperature;BMP_pressure;BME280_temperature;BME280_humidity;BME280_pressure;Samples;Min_cycle;Max_cycle;Signal;HPM_P1;HPM_P2
2022/10/13 00:00:46;;;;;;;;;;;;;;;;;;5034423;28;1317;-70
2022/10/13 00:03:12;;;;;;;;;;;;;;;;;;5033979;28;1021;-69
2022/10/13 00:05:39;;;;;;;;;;;;;;;;;;5034391;28;767;-69
2022/10/13 00:08:06;;;;;;;;;;;;;;;;;;5034229;28;857;-70
2022/10/13 00:10:40;;;;;;;;;;;;;;;;;;5033797;28;1474;-69
2022/10/13 00:13:07;;;;;;;;;;;;;;;;;;5033810;28;1119;-70
2022/10/13 00:15:33;;;;;;;;;;;;;;;;;;5034093;28;1973;-69
2022/10/13 00:17:59;;;;;;;;;;;;;;;;;;5032271;28;1450;-70
2022/10/13 00:20:26;;;;;;;;;;;;;;;;;;5034139;28;1095;-69
2022/10/13 00:22:52;;;;;;;;;;;;;;;;;;5015839;28;1399;-69
2022/10/13 00:25:18;;;;;;;;;;;;;;;;;;5033857;28;1064;-70
2022/10/13 00:27:47;;;;;;;;;;;;;;;;;;5033213;28;877;-70
2022/10/13 00:30:13;;;;;;;;;;;;;;;;;;5033675;28;1020;-70
2022/10/13 00:32:39;;;;;;;;;;;;;;;;;;5033504;28;1298;-70
2022/10/13 00:35:06;;;;;;;;;;;;;;;;;;5015694;28;1986;-70
2022/10/13 00:37:32;;;;;;;;;;;;;;;;;;5033770;28;1124;-70
2022/10/13 00:39:58;;;;;;;;;;;;;;;;;;5033460;28;827;-70
2022/10/13 00:42:26;;;;;;;;;;;;;;;;;;5033495;28;1388;-70
2022/10/13 00:44:59;;;;;;;;;;;;;;;;;;5033173;28;1497;-70
2022/10/13 00:47:25;;;;;;;;;;;;;;;;;;5033701;28;1132;-70
2022/10/13 00:49:52;;;;;;;;;;;;;;;;;;5033537;28;1017;-69
2022/10/13 00:52:18;;;;;;;;;;;;;;;;;;5033178;28;1400;-70
2022/10/13 00:54:44;;;;;;;;;;;;;;;;;;5033364;28;1935;-70
2022/10/13 00:57:10;;;;;;;;;;;;;;;;;;5033304;28;1227;-70
2022/10/13 00:59:37;;;;;;;;;;;;;;;;;;5015490;28;1223;-70
2022/10/13 01:02:04;;;;;;;;;;;;;;;;;;5032943;28;1311;-69
2022/10/13 01:04:31;;;;;;;;;;;;;;;;;;5033206;28;1056;-70
2022/10/13 01:06:58;;;;;;;;;;;;;;;;;;5015590;28;1225;-70
2022/10/13 01:09:24;;;;;;;;;;;;;;;;;;5015933;28;806;-70
2022/10/13 01:11:54;;;;;;;;;;;;;;;;;;5032752;28;1465;-70
2022/10/13 01:14:22;;;;;;;;;;;;;;;;;;5033019;28;1979;-70
2022/10/13 01:16:50;;;;;;;;;;;;;;;;;;5033142;28;909;-71
2022/10/13 01:19:24;;;;;;;;;;;;;;;;;;5033052;28;1072;-70
2022/10/13 01:21:51;;;;;;;;;;;;;;;;;;5032742;28;1433;-70
2022/10/13 01:24:26;;;;;;;;;;;;;;;;;;5033078;28;676;-70
2022/10/13 01:27:01;;;;;;;;;;;;;;;;;;5032856;28;893;-70
2022/10/13 01:29:48;;;;;;;;;;;;;;;;;;5032517;28;834;-70
2022/10/13 01:32:16;;;;;;;;;;;;;;;;;;5032540;28;1350;-71
2022/10/13 01:34:44;;;;;;;;;;;;;;;;;;5034972;28;1910;-71
2022/10/13 01:37:11;;;;;;;;;;;;;;;;;;5032780;28;1079;-70
2022/10/13 01:39:38;;;;;;;;;;;;;;;;;;5045473;23;3782;-72
2022/10/13 01:42:10;;;;;;;;;;;;;;;;;;5031673;28;1063;-73
2022/10/13 01:44:37;;;;;;;;;;;;;;;;;;5032455;28;1155;-73
2022/10/13 01:47:05;;;;;;;;;;;;;;;;;;5032325;28;1079;-73
2022/10/13 01:49:32;;;;;;;;;;;;;;;;;;5032466;28;1400;-73
2022/10/13 01:51:59;;;;;;;;;;;;;;;;;;5030712;28;1168;-73
2022/10/13 01:54:25;;;;;;;;;;;;;;;;;;5032328;28;1056;-73
2022/10/13 01:56:52;;;;;;;;;;;;;;;;;;5030981;28;1159;-73
2022/10/13 01:59:19;;;;;;;;;;;;;;;;;;5031653;28;1826;-73
2022/10/13 02:01:48;;;;;;;;;;;;;;;;;;5030580;28;1286;-73
2022/10/13 02:04:23;;;;;;;;;;;;;;;;;;5031218;28;1437;-71
2022/10/13 02:06:51;;;;;;;;;;;;;;;;;;5030929;28;1989;-71
2022/10/13 02:09:19;;;;;;;;;;;;;;;;;;5021641;28;1412;-73
2022/10/13 02:11:48;;;;;;;;;;;;;;;;;;5020296;28;1259;-73
2022/10/13 02:14:15;;;;;;;;;;;;;;;;;;5020848;28;1310;-73
2022/10/13 02:16:42;;;;;;;;;;;;;;;;;;5022165;28;1385;-75
2022/10/13 02:19:09;;;;;;;;;;;;;;;;;;5021727;28;1407;-76
2022/10/13 02:21:36;;;;;;;;;;;;;;;;;;5021438;28;1339;-75
2022/10/13 02:24:03;;;;;;;;;;;;;;;;;;5021970;28;1329;-75
2022/10/13 02:26:29;;;;;;;;;;;;;;;;;;5020344;28;1914;-75
2022/10/13 02:29:00;;;;;;;;;;;;;;;;;;5020864;28;1394;-74
2022/10/13 02:31:26;;;;;;;;;;;;;;;;;;5022697;28;1356;-73
2022/10/13 02:33:52;;;;;;;;;;;;;;;;;;5022119;28;1410;-75
2022/10/13 02:36:18;;;;;;;;;;;;;;;;;;5021601;28;1296;-75
2022/10/13 02:38:46;;;;;;;;;;;;;;;;;;5020771;28;1386;-75
2022/10/13 02:41:13;;;;;;;;;;;;;;;;;;5020137;28;1399;-74
2022/10/13 02:43:39;;;;;;;;;;;;;;;;;;5021152;28;1407;-75
2022/10/13 02:46:05;;;;;;;;;;;;;;;;;;5021962;28;1981;-75
2022/10/13 02:48:31;;;;;;;;;;;;;;;;;;5020588;28;1357;-75
2022/10/13 02:50:57;;;;;;;;;;;;;;;;;;5031340;28;1693;-75
2022/10/13 02:53:23;;;;;;;;;;;;;;;;;;5031220;28;949;-75
2022/10/13 02:55:51;;;;;;;;;;;;;;;;;;5031393;28;1135;-73
2022/10/13 02:58:17;;;;;;;;;;;;;;;;;;5024893;28;1234;-75
2022/10/13 03:00:43;;;;;;;;;;;;;;;;;;5011723;28;1291;-76
2022/10/13 03:03:10;;;;;;;;;;;;;;;;;;5010233;28;1313;-75
2022/10/13 03:05:36;;;;;;;;;;;;;;;;;;5024694;28;1906;-75
2022/10/13 03:08:03;;;;;;;;;;;;;;;;;;5031148;28;1133;-75
2022/10/13 03:10:29;;;;;;;;;;;;;;;;;;5031197;28;1329;-75
2022/10/13 03:12:58;;;;;;;;;;;;;;;;;;5030918;28;846;-76
2022/10/13 03:15:24;;;;;;;;;;;;;;;;;;5031423;28;735;-75
2022/10/13 03:17:54;;;;;;;;;;;;;;;;;;5031296;28;818;-76
2022/10/13 03:20:20;;;;;;;;;;;;;;;;;;5030123;28;1396;-75
2022/10/13 03:22:46;;;;;;;;;;;;;;;;;;5030848;28;1087;-75
2022/10/13 03:25:13;;;;;;;;;;;;;;;;;;5022310;28;1985;-75
2022/10/13 03:27:41;;;;;;;;;;;;;;;;;;5011584;28;825;-75
2022/10/13 03:30:10;;;;;;;;;;;;;;;;;;5010095;28;1389;-75
2022/10/13 03:32:38;;;;;;;;;;;;;;;;;;5011309;28;878;-75
2022/10/13 03:35:05;;;;;;;;;;;;;;;;;;5030278;28;1666;-75
2022/10/13 03:37:31;;;;;;;;;;;;;;;;;;5031168;28;1024;-75
2022/10/13 03:39:58;;;;;;;;;;;;;;;;;;5030733;28;1307;-75
2022/10/13 03:42:24;;;;;;;;;;;;;;;;;;5030972;28;964;-75
2022/10/13 03:44:50;;;;;;;;;;;;;;;;;;5029320;28;1428;-75
2022/10/13 03:47:17;;;;;;;;;;;;;;;;;;5027164;28;1985;-74
2022/10/13 03:49:44;;;;;;;;;;;;;;;;;;5029956;28;1513;-74
2022/10/13 03:52:10;;;;;;;;;;;;;;;;;;5030894;28;1179;-74
2022/10/13 03:54:36;;;;;;;;;;;;;;;;;;5032338;28;1499;-74
2022/10/13 03:57:02;;;;;;;;;;;;;;;;;;5033199;28;1346;-76
2022/10/13 03:59:29;;;;;;;;;;;;;;;;;;5034383;28;1405;-75
2022/10/13 04:01:55;;;;;;;;;;;;;;;;;;5034300;28;815;-74
2022/10/13 04:04:22;;;;;;;;;;;;;;;;;;5034403;28;1129;-75
2022/10/13 04:06:53;;;;;;;;;;;;;;;;;;5034182;28;2029;-75
2022/10/13 04:09:19;;;;;;;;;;;;;;;;;;5032594;28;1525;-76
2022/10/13 04:11:45;;;;;;;;;;;;;;;;;;5032637;28;1512;-72
2022/10/13 04:14:11;;;;;;;;;;;;;;;;;;5032821;28;1320;-74
2022/10/13 04:16:39;;;;;;;;;;;;;;;;;;5034088;28;1606;-74
2022/10/13 04:19:06;;;;;;;;;;;;;;;;;;5030810;28;1481;-75
2022/10/13 04:21:34;;;;;;;;;;;;;;;;;;5033819;28;1131;-73
2022/10/13 04:24:00;;;;;;;;;;;;;;;;;;5033963;28;883;-73
2022/10/13 04:26:27;;;;;;;;;;;;;;;;;;5034344;28;1973;-72
2022/10/13 04:28:54;;;;;;;;;;;;;;;;;;5034144;28;1368;-74
2022/10/13 04:31:20;;;;;;;;;;;;;;;;;;5034000;28;984;-72
2022/10/13 04:33:47;;;;;;;;;;;;;;;;;;5034232;28;965;-74
2022/10/13 04:36:14;;;;;;;;;;;;;;;;;;5033789;28;922;-73
2022/10/13 04:38:41;;;;;;;;;;;;;;;;;;5032671;28;1299;-73
2022/10/13 04:41:08;;;;;;;;;;;;;;;;;;5032438;28;1002;-73
2022/10/13 04:43:34;;;;;;;;;;;;;;;;;;5032005;28;1120;-73
2022/10/13 04:46:03;;;;;;;;;;;;;;;;;;5031685;28;1914;-74
2022/10/13 04:48:29;;;;;;;;;;;;;;;;;;5033794;28;827;-73
2022/10/13 04:50:59;;;;;;;;;;;;;;;;;;5033639;28;1393;-75
2022/10/13 04:53:27;;;;;;;;;;;;;;;;;;5033288;28;1072;-73
2022/10/13 04:55:55;;;;;;;;;;;;;;;;;;5033361;28;839;-73
2022/10/13 04:58:21;;;;;;;;;;;;;;;;;;5033532;28;1238;-73
2022/10/13 05:00:47;;;;;;;;;;;;;;;;;;5032042;28;1410;-73
2022/10/13 05:03:14;;;;;;;;;;;;;;;;;;5032823;28;850;-73
2022/10/13 05:05:41;;;;;;;;;;;;;;;;;;5033048;28;1914;-73
2022/10/13 05:08:07;;;;;;;;;;;;;;;;;;5033050;28;1068;-73
2022/10/13 05:10:34;;;;;;;;;;;;;;;;;;5031996;28;1400;-73
2022/10/13 05:13:01;;;;;;;;;;;;;;;;;;5032025;28;1417;-75
2022/10/13 05:15:27;;;;;;;;;;;;;;;;;;5033272;28;1103;-74
2022/10/13 05:17:53;;;;;;;;;;;;;;;;;;5033113;28;1079;-75
2022/10/13 05:20:20;;;;;;;;;;;;;;;;;;5031625;28;1316;-74
2022/10/13 05:22:46;;;;;;;;;;;;;;;;;;5032730;28;812;-73
2022/10/13 05:25:12;;;;;;;;;;;;;;;;;;5032762;28;1144;-73
2022/10/13 05:27:38;;;;;;;;;;;;;;;;;;5032889;28;1922;-74
2022/10/13 05:30:10;;;;;;;;;;;;;;;;;;5032663;28;1316;-74
2022/10/13 05:32:36;;;;;;;;;;;;;;;;;;5031301;28;1159;-74
2022/10/13 05:35:03;;;;;;;;;;;;;;;;;;5032702;28;1080;-74
2022/10/13 05:37:29;;;;;;;;;;;;;;;;;;5047823;28;1452;-73
2022/10/13 05:39:55;;;;;;;;;;;;;;;;;;5030674;28;1415;-74
2022/10/13 05:42:21;;;;;;;;;;;;;;;;;;5032979;28;1075;-73
2022/10/13 05:44:48;;;;;;;;;;;;;;;;;;5031428;28;1267;-76
2022/10/13 05:47:15;;;;;;;;;;;;;;;;;;5032452;28;1918;-74
2022/10/13 05:49:41;;;;;;;;;;;;;;;;;;5032375;28;1412;-74
2022/10/13 05:52:08;;;;;;;;;;;;;;;;;;5032190;28;1122;-74
2022/10/13 05:54:34;;;;;;;;;;;;;;;;;;5031219;28;1187;-74
2022/10/13 05:57:01;;;;;;;;;;;;;;;;;;5032120;28;1167;-73
2022/10/13 05:59:28;;;;;;;;;;;;;;;;;;5032319;28;1393;-73
2022/10/13 06:01:54;;;;;;;;;;;;;;;;;;5028622;28;1113;-75
2022/10/13 06:04:26;;;;;;;;;;;;;;;;;;5019171;28;1260;-76
2022/10/13 06:06:52;;;;;;;;;;;;;;;;;;5022357;28;1914;-75
2022/10/13 06:09:18;;;;;;;;;;;;;;;;;;5020571;28;1427;-73
2022/10/13 06:11:45;;;;;;;;;;;;;;;;;;5021986;28;1337;-74
2022/10/13 06:14:11;;;;;;;;;;;;;;;;;;5021958;28;1417;-74
2022/10/13 06:16:37;;;;;;;;;;;;;;;;;;5031338;28;850;-74
2022/10/13 06:19:03;;;;;;;;;;;;;;;;;;5030818;28;1317;-74
2022/10/13 06:21:31;;;;;;;;;;;;;;;;;;5030349;28;1337;-74
2022/10/13 06:23:57;;;;;;;;;;;;;;;;;;5030776;28;1455;-73
2022/10/13 06:26:23;;;;;;;;;;;;;;;;;;5031845;28;1902;-74
2022/10/13 06:28:49;;;;;;;;;;;;;;;;;;5031703;28;1400;-74
2022/10/13 06:31:17;;;;;;;;;;;;;;;;;;5028482;28;1498;-72
2022/10/13 06:33:43;;;;;;;;;;;;;;;;;;5021345;28;1255;-74
2022/10/13 06:36:10;;;;;;;;;;;;;;;;;;5020463;28;1199;-74
2022/10/13 06:38:37;;;;;;;;;;;;;;;;;;5021783;28;1459;-73
2022/10/13 06:41:04;;;;;;;;;;;;;;;;;;5020371;28;1659;-73
2022/10/13 06:43:32;;;;;;;;;;;;;;;;;;5051678;28;1376;-74
2022/10/13 06:46:01;;;;;;;;;;;;;;;;;;5036387;28;1324;-74
2022/10/13 06:48:28;;;;;;;;;;;;;;;;;;5022200;28;1922;-73
2022/10/13 06:50:54;;;;;;;;;;;;;;;;;;5021864;28;1383;-74
2022/10/13 06:53:20;;;;;;;;;;;;;;;;;;5016580;28;1216;-74
2022/10/13 06:55:48;;;;;;;;;;;;;;;;;;5010411;28;1273;-74
2022/10/13 06:58:14;;;;;;;;;;;;;;;;;;5019048;28;1281;-74
2022/10/13 07:00:40;;;;;;;;;;;;;;;;;;5011955;28;1309;-73
2022/10/13 07:03:07;;;;;;;;;;;;;;;;;;5011310;28;1123;-73
2022/10/13 07:05:33;;;;;;;;;;;;;;;;;;5010508;28;1036;-73
2022/10/13 07:07:59;;;;;;;;;;;;;;;;;;5011402;28;1969;-73
2022/10/13 07:10:25;;;;;;;;;;;;;;;;;;5010369;28;1368;-73
2022/10/13 07:12:53;;;;;;;;;;;;;;;;;;5014986;28;1413;-74
2022/10/13 07:15:19;;;;;;;;;;;;;;;;;;5028924;28;1131;-73
2022/10/13 07:17:50;;;;;;;;;;;;;;;;;;5031340;28;905;-73
2022/10/13 07:20:17;;;;;;;;;;;;;;;;;;5029731;28;1309;-73
2022/10/13 07:22:44;;;;;;;;;;;;;;;;;;5031359;28;795;-73
2022/10/13 07:25:10;;;;;;;;;;;;;;;;;;5030403;28;1445;-73
2022/10/13 07:27:39;;;;;;;;;;;;;;;;;;5032740;28;1910;-73
2022/10/13 07:30:07;;;;;;;;;;;;;;;;;;5034770;28;1345;-73
2022/10/13 07:32:34;;;;;;;;;;;;;;;;;;5029509;28;1306;-72
2022/10/13 07:35:02;;;;;;;;;;;;;;;;;;5014925;28;882;-72
2022/10/13 07:37:28;;;;;;;;;;;;;;;;;;5015547;28;966;-73
2022/10/13 07:39:54;;;;;;;;;;;;;;;;;;5014903;28;1305;-75
2022/10/13 07:42:20;;;;;;;;;;;;;;;;;;5014970;28;973;-74
2022/10/13 07:44:46;;;;;;;;;;;;;;;;;;5014778;28;1002;-73
2022/10/13 07:47:14;;;;;;;;;;;;;;;;;;5040045;23;3457;-74
2022/10/13 07:49:41;;;;;;;;;;;;;;;;;;5053125;28;1349;-74
2022/10/13 07:52:07;;;;;;;;;;;;;;;;;;5053029;28;992;-74
2022/10/13 07:54:34;;;;;;;;;;;;;;;;;;5054140;28;1440;-75
2022/10/13 07:57:00;;;;;;;;;;;;;;;;;;5051248;28;1405;-74
2022/10/13 07:59:26;;;;;;;;;;;;;;;;;;5034009;28;1363;-75
2022/10/13 08:01:52;;;;;;;;;;;;;;;;;;5035380;28;1147;-74
2022/10/13 08:04:20;;;;;;;;;;;;;;;;;;5035098;28;739;-76
2022/10/13 08:06:46;;;;;;;;;;;;;;;;;;5034055;28;1914;-74
2022/10/13 08:09:12;;;;;;;;;;;;;;;;;;5034412;28;882;-74
2022/10/13 08:11:38;;;;;;;;;;;;;;;;;;5032719;28;1242;-74
2022/10/13 08:14:04;;;;;;;;;;;;;;;;;;5034462;28;936;-73
2022/10/13 08:16:31;;;;;;;;;;;;;;;;;;5034137;28;1405;-74
2022/10/13 08:18:57;;;;;;;;;;;;;;;;;;5034080;28;949;-75
2022/10/13 08:21:26;;;;;;;;;;;;;;;;;;5034060;28;1075;-74
2022/10/13 08:23:52;;;;;;;;;;;;;;;;;;5040118;28;1473;-75
2022/10/13 08:26:19;;;;;;;;;;;;;;;;;;5040183;28;1294;-76
2022/10/13 08:28:45;;;;;;;;;;;;;;;;;;5033822;28;1918;-75
2022/10/13 08:31:12;;;;;;;;;;;;;;;;;;5034241;28;909;-74
2022/10/13 08:33:39;;;;;;;;;;;;;;;;;;5052738;28;1237;-75
2022/10/13 08:36:06;;;;;;;;;;;;;;;;;;5055272;28;1224;-75
2022/10/13 08:38:33;;;;;;;;;;;;;;;;;;5032850;28;1420;-75
2022/10/13 08:41:00;;;;;;;;;;;;;;;;;;5039824;28;1084;-75
2022/10/13 08:43:26;;;;;;;;;;;;;;;;;;5053249;28;790;-76
2022/10/13 08:45:53;;;;;;;;;;;;;;;;;;5042176;28;1246;-75
2022/10/13 08:48:20;;;;;;;;;;;;;;;;;;5033344;28;1918;-75
2022/10/13 08:50:47;;;;;;;;;;;;;;;;;;5032195;28;892;-77
2022/10/13 08:53:14;;;;;;;;;;;;;;;;;;5035048;28;1422;-75
2022/10/13 08:55:47;;;;;;;;;;;;;;;;;;5053329;28;987;-75
2022/10/13 08:58:15;;;;;;;;;;;;;;;;;;5046634;28;1386;-76
2022/10/13 09:00:41;;;;;;;;;;;;;;;;;;5053146;28;810;-76
2022/10/13 09:03:19;;;;;;;;;;;;;;;;;;5052273;28;1206;-77
2022/10/13 09:05:46;;;;;;;;;;;;;;;;;;5052931;28;1067;-76
2022/10/13 09:08:13;;;;;;;;;;;;;;;;;;5053141;28;1982;-75
2022/10/13 09:10:47;;;;;;;;;;;;;;;;;;5053163;28;901;-75
2022/10/13 09:13:17;;;;;;;;;;;;;;;;;;5051230;28;867;-75
2022/10/13 09:15:43;;;;;;;;;;;;;;;;;;5052850;28;1059;-75
2022/10/13 09:18:12;;;;;;;;;;;;;;;;;;5052891;28;1401;-74
2022/10/13 09:20:38;;;;;;;;;;;;;;;;;;5052846;28;1056;-75
2022/10/13 09:23:05;;;;;;;;;;;;;;;;;;5052405;28;1416;-76
2022/10/13 09:25:33;;;;;;;;;;;;;;;;;;5053106;28;610;-76
2022/10/13 09:28:02;;;;;;;;;;;;;;;;;;5051529;28;1982;-75
2022/10/13 09:30:30;;;;;;;;;;;;;;;;;;5052745;28;1256;-76
2022/10/13 09:32:59;;;;;;;;;;;;;;;;;;5052460;28;1000;-75
2022/10/13 09:35:25;;;;;;;;;;;;;;;;;;5052681;28;905;-75
2022/10/13 09:38:01;;;;;;;;;;;;;;;;;;5052391;28;1401;-73
2022/10/13 09:40:29;;;;;;;;;;;;;;;;;;5052791;28;949;-75
2022/10/13 09:42:56;;;;;;;;;;;;;;;;;;5051957;28;1119;-74
2022/10/13 09:45:24;;;;;;;;;;;;;;;;;;5052547;28;965;-75
2022/10/13 09:47:51;;;;;;;;;;;;;;;;;;5051695;28;1972;-75
2022/10/13 09:50:18;;;;;;;;;;;;;;;;;;5052186;28;1126;-75
2022/10/13 09:52:44;;;;;;;;;;;;;;;;;;5050591;28;1367;-74
2022/10/13 09:55:26;;;;;;;;;;;;;;;;;;5052392;28;1064;-74
2022/10/13 09:57:54;;;;;;;;;;;;;;;;;;5041055;28;1339;-74
2022/10/13 10:00:21;;;;;;;;;;;;;;;;;;5032116;28;853;-75
2022/10/13 10:02:51;;;;;;;;;;;;;;;;;;5049057;28;1551;-73
2022/10/13 10:05:19;;;;;;;;;;;;;;;;;;5052036;28;961;-74
2022/10/13 10:07:48;;;;;;;;;;;;;;;;;;5051593;28;1971;-74
2022/10/13 10:10:16;;;;;;;;;;;;;;;;;;5049959;28;1060;-74
2022/10/13 10:12:42;;;;;;;;;;;;;;;;;;5048584;28;1100;-74
2022/10/13 10:15:16;;;;;;;;;;;;;;;;;;5051626;28;818;-74
2022/10/13 10:17:46;;;;;;;;;;;;;;;;;;5052481;28;1395;-74
2022/10/13 10:20:19;;;;;;;;;;;;;;;;;;5052190;28;1059;-74
2022/10/13 10:22:47;;;;;;;;;;;;;;;;;;5049708;28;1424;-75
2022/10/13 10:25:19;;;;;;;;;;;;;;;;;;5051437;28;779;-74
2022/10/13 10:27:49;;;;;;;;;;;;;;;;;;5052355;28;1977;-75
2022/10/13 10:30:16;;;;;;;;;;;;;;;;;;5053300;28;1114;-71
2022/10/13 10:32:43;;;;;;;;;;;;;;;;;;5051781;28;1000;-75
2022/10/13 10:35:12;;;;;;;;;;;;;;;;;;5052860;28;925;-75
2022/10/13 10:37:43;;;;;;;;;;;;;;;;;;5052553;28;1420;-75
2022/10/13 10:40:13;;;;;;;;;;;;;;;;;;5050859;28;1148;-75
2022/10/13 10:42:44;;;;;;;;;;;;;;;;;;5050758;28;1122;-76
2022/10/13 10:45:13;;;;;;;;;;;;;;;;;;5051273;28;1079;-74
2022/10/13 10:47:40;;;;;;;;;;;;;;;;;;5050014;28;1966;-75
2022/10/13 10:50:07;;;;;;;;;;;;;;;;;;5049248;28;1118;-74
2022/10/13 10:52:35;;;;;;;;;;;;;;;;;;5049777;28;1433;-74
2022/10/13 10:55:07;;;;;;;;;;;;;;;;;;5050911;28;1063;-75
2022/10/13 10:57:36;;;;;;;;;;;;;;;;;;5044466;28;1313;-74
2022/10/13 11:00:04;;;;;;;;;;;;;;;;;;5032453;28;1060;-74
2022/10/13 11:02:36;;;;;;;;;;;;;;;;;;5034650;28;1367;-73
2022/10/13 11:05:03;;;;;;;;;;;;;;;;;;5058880;28;1282;-76
2022/10/13 11:07:48;;;;;;;;;;;;;;;;;;5055669;28;1975;-75
2022/10/13 11:10:20;;;;;;;;;;;;;;;;;;5058200;28;1370;-74
2022/10/13 11:13:04;;;;;;;;;;;;;;;;;;5058118;28;1263;-74
2022/10/13 11:15:32;;;;;;;;;;;;;;;;;;5057674;28;1291;-75
2022/10/13 11:17:58;;;;;;;;;;;;;;;;;;5058216;28;1478;-75
2022/10/13 11:20:43;;;;;;;;;;;;;;;;;;5058357;28;1243;-75
2022/10/13 11:23:28;;;;;;;;;;;;;;;;;;5057221;28;1268;-75
2022/10/13 11:26:01;;;;;;;;;;;;;;;;;;5055562;28;1093;-75
2022/10/13 11:28:46;;;;;;;;;;;;;;;;;;5057578;28;1910;-74
2022/10/13 11:31:24;;;;;;;;;;;;;;;;;;5055287;28;1279;-73
2022/10/13 11:33:54;;;;;;;;;;;;;;;;;;5057576;28;1099;-73
2022/10/13 11:36:39;;;;;;;;;;;;;;;;;;5057325;28;1459;-75
2022/10/13 11:39:09;;;;;;;;;;;;;;;;;;5056036;28;1263;-75
2022/10/13 11:41:41;;;;;;;;;;;;;;;;;;5056672;28;1304;-77
2022/10/13 11:44:10;;;;;;;;;;;;;;;;;;5056788;28;1562;-76
2022/10/13 11:46:37;;;;;;;;;;;;;;;;;;5056934;28;1458;-76
2022/10/13 11:49:05;;;;;;;;;;;;;;;;;;5057185;28;1917;-75
2022/10/13 11:51:32;;;;;;;;;;;;;;;;;;5056671;28;1259;-76
2022/10/13 11:54:04;;;;;;;;;;;;;;;;;;5057285;28;1247;-75
2022/10/13 11:56:34;;;;;;;;;;;;;;;;;;5057085;28;1490;-76
2022/10/13 11:59:02;;;;;;;;;;;;;;;;;;5056241;28;1407;-75
2022/10/13 12:01:28;;;;;;;;;;;;;;;;;;5057201;28;1406;-75
2022/10/13 12:03:54;;;;;;;;;;;;;;;;;;5055529;28;1117;-73
2022/10/13 12:06:25;;;;;;;;;;;;;;;;;;5058136;28;1390;-73
2022/10/13 12:08:51;;;;;;;;;;;;;;;;;;5058023;28;1961;-74
2022/10/13 12:11:22;;;;;;;;;;;;;;;;;;5058089;28;1275;-74
2022/10/13 12:13:48;;;;;;;;;;;;;;;;;;5055064;28;1291;-74
2022/10/13 12:16:16;;;;;;;;;;;;;;;;;;5055015;28;1333;-73
2022/10/13 12:18:44;;;;;;;;;;;;;;;;;;5038398;28;1388;-75
2022/10/13 12:21:11;;;;;;;;;;;;;;;;;;5044398;28;1734;-78
2022/10/13 12:23:37;;;;;;;;;;;;;;;;;;5033248;28;1503;-75
2022/10/13 12:26:04;;;;;;;;;;;;;;;;;;5032259;28;1071;-76
2022/10/13 12:28:31;;;;;;;;;;;;;;;;;;5032480;28;1912;-76
2022/10/13 12:30:58;;;;;;;;;;;;;;;;;;5032112;28;1010;-76
2022/10/13 12:33:28;;;;;;;;;;;;;;;;;;5030591;28;1330;-76
2022/10/13 12:35:54;;;;;;;;;;;;;;;;;;5031996;28;763;-76
2022/10/13 12:38:21;;;;;;;;;;;;;;;;;;5030456;28;1424;-76
2022/10/13 12:40:47;;;;;;;;;;;;;;;;;;5031908;28;921;-77
2022/10/13 12:43:13;;;;;;;;;;;;;;;;;;5031577;28;969;-75
2022/10/13 12:45:40;;;;;;;;;;;;;;;;;;5030519;28;1307;-76
2022/10/13 12:48:06;;;;;;;;;;;;;;;;;;5030221;28;1918;-76
2022/10/13 12:50:35;;;;;;;;;;;;;;;;;;5031495;28;1059;-77
2022/10/13 12:53:12;;;;;;;;;;;;;;;;;;5031372;28;1402;-76
2022/10/13 12:55:45;;;;;;;;;;;;;;;;;;5032909;28;1134;-76
2022/10/13 12:58:14;;;;;;;;;;;;;;;;;;5045189;28;1379;-76
2022/10/13 13:00:41;;;;;;;;;;;;;;;;;;5052770;28;857;-76
2022/10/13 13:03:19;;;;;;;;;;;;;;;;;;5052741;28;873;-76
2022/10/13 13:05:48;;;;;;;;;;;;;;;;;;5053009;28;880;-76
2022/10/13 13:08:22;;;;;;;;;;;;;;;;;;5052429;28;1910;-77
2022/10/13 13:10:53;;;;;;;;;;;;;;;;;;5052375;28;933;-78
2022/10/13 13:13:21;;;;;;;;;;;;;;;;;;5052350;28;786;-76
2022/10/13 13:15:47;;;;;;;;;;;;;;;;;;5052469;28;1075;-76
2022/10/13 13:18:38;;;;;;;;;;;;;;;;;;5052387;28;1275;-76
2022/10/13 13:21:06;;;;;;;;;;;;;;;;;;5034914;28;1408;-76
2022/10/13 13:23:34;;;;;;;;;;;;;;;;;;5051969;28;1123;-76
2022/10/13 13:26:03;;;;;;;;;;;;;;;;;;5051603;28;786;-75
2022/10/13 13:28:30;;;;;;;;;;;;;;;;;;5052189;28;1977;-76
2022/10/13 13:30:57;;;;;;;;;;;;;;;;;;5051923;28;798;-77
2022/10/13 13:33:23;;;;;;;;;;;;;;;;;;5051738;28;1122;-76
2022/10/13 13:35:51;;;;;;;;;;;;;;;;;;5051649;28;777;-76
2022/10/13 13:38:19;;;;;;;;;;;;;;;;;;5051849;28;1515;-76
2022/10/13 13:40:45;;;;;;;;;;;;;;;;;;5050912;28;1558;-76
2022/10/13 13:43:11;;;;;;;;;;;;;;;;;;5050005;28;1398;-76
2022/10/13 13:45:37;;;;;;;;;;;;;;;;;;5051570;28;873;-74
2022/10/13 13:48:06;;;;;;;;;;;;;;;;;;5051309;28;1328;-74
2022/10/13 13:50:33;;;;;;;;;;;;;;;;;;5049813;28;1918;-77
2022/10/13 13:53:00;;;;;;;;;;;;;;;;;;5029509;28;1235;-76
2022/10/13 13:55:28;;;;;;;;;;;;;;;;;;5030638;28;829;-76
2022/10/13 13:57:54;;;;;;;;;;;;;;;;;;5041036;28;1326;-77
2022/10/13 14:00:21;;;;;;;;;;;;;;;;;;5050914;28;1405;-76
2022/10/13 14:02:53;;;;;;;;;;;;;;;;;;5050577;28;798;-76
2022/10/13 14:05:20;;;;;;;;;;;;;;;;;;5051177;28;1144;-75
2022/10/13 14:07:46;;;;;;;;;;;;;;;;;;5050779;28;1301;-77
2022/10/13 14:10:12;;;;;;;;;;;;;;;;;;5051085;28;1914;-76
2022/10/13 14:12:40;;;;;;;;;;;;;;;;;;5050425;28;1032;-75
2022/10/13 14:15:06;;;;;;;;;;;;;;;;;;5049514;28;1162;-76
2022/10/13 14:17:33;;;;;;;;;;;;;;;;;;5050743;28;1298;-77
2022/10/13 14:19:59;;;;;;;;;;;;;;;;;;5050772;28;786;-76
2022/10/13 14:22:26;;;;;;;;;;;;;;;;;;5048476;28;1453;-75
2022/10/13 14:24:52;;;;;;;;;;;;;;;;;;5049575;28;1104;-76
2022/10/13 14:27:18;;;;;;;;;;;;;;;;;;5051246;28;1387;-75
2022/10/13 14:29:46;;;;;;;;;;;;;;;;;;5049377;28;1910;-75
2022/10/13 14:32:12;;;;;;;;;;;;;;;;;;5050821;28;1177;-76
2022/10/13 14:34:38;;;;;;;;;;;;;;;;;;5050626;28;1114;-77
2022/10/13 14:37:04;;;;;;;;;;;;;;;;;;5050162;28;1414;-77
2022/10/13 14:39:30;;;;;;;;;;;;;;;;;;5050903;28;1128;-78
2022/10/13 14:41:56;;;;;;;;;;;;;;;;;;5050405;28;1131;-76
2022/10/13 14:44:23;;;;;;;;;;;;;;;;;;5050694;28;1241;-74
2022/10/13 14:46:50;;;;;;;;;;;;;;;;;;5051681;28;1289;-76
2022/10/13 14:49:16;;;;;;;;;;;;;;;;;;5066058;22;2245;-73
2022/10/13 14:51:44;;;;;;;;;;;;;;;;;;5051717;28;1182;-73
2022/10/13 14:54:10;;;;;;;;;;;;;;;;;;5052496;28;1025;-72
2022/10/13 14:56:36;;;;;;;;;;;;;;;;;;5053009;28;1151;-73
2022/10/13 14:59:04;;;;;;;;;;;;;;;;;;5031602;28;1894;-73
2022/10/13 15:01:37;;;;;;;;;;;;;;;;;;5032765;28;834;-74
2022/10/13 15:04:05;;;;;;;;;;;;;;;;;;5032826;28;1096;-74
2022/10/13 15:06:32;;;;;;;;;;;;;;;;;;5031522;28;1199;-74
2022/10/13 15:08:58;;;;;;;;;;;;;;;;;;5041248;28;1719;-74
2022/10/13 15:11:25;;;;;;;;;;;;;;;;;;5036671;28;1258;-73
2022/10/13 15:13:51;;;;;;;;;;;;;;;;;;5032606;28;1540;-75
2022/10/13 15:16:18;;;;;;;;;;;;;;;;;;5032789;28;921;-74
2022/10/13 15:18:44;;;;;;;;;;;;;;;;;;5031141;28;1377;-73
2022/10/13 15:21:11;;;;;;;;;;;;;;;;;;5032408;28;1910;-73
2022/10/13 15:23:38;;;;;;;;;;;;;;;;;;5032059;28;816;-74
2022/10/13 15:26:04;;;;;;;;;;;;;;;;;;5032505;28;830;-73
2022/10/13 15:28:34;;;;;;;;;;;;;;;;;;5037112;28;1753;-72
2022/10/13 15:31:01;;;;;;;;;;;;;;;;;;5052090;28;1135;-73
2022/10/13 15:33:27;;;;;;;;;;;;;;;;;;5051693;28;1483;-74
2022/10/13 15:35:53;;;;;;;;;;;;;;;;;;5052203;28;1084;-74
2022/10/13 15:38:21;;;;;;;;;;;;;;;;;;5051701;28;1492;-75
2022/10/13 15:40:47;;;;;;;;;;;;;;;;;;5051750;28;2188;-74
2022/10/13 15:43:14;;;;;;;;;;;;;;;;;;5051405;28;1254;-73
2022/10/13 15:45:40;;;;;;;;;;;;;;;;;;5052351;28;1134;-71
2022/10/13 15:48:06;;;;;;;;;;;;;;;;;;5052586;28;1285;-72
2022/10/13 15:50:32;;;;;;;;;;;;;;;;;;5040479;28;1265;-73
2022/10/13 15:52:59;;;;;;;;;;;;;;;;;;5045757;28;1527;-75
2022/10/13 15:55:27;;;;;;;;;;;;;;;;;;5052661;28;1260;-74
2022/10/13 15:57:53;;;;;;;;;;;;;;;;;;5044701;28;1514;-73
2022/10/13 16:00:20;;;;;;;;;;;;;;;;;;5051322;28;1963;-73
2022/10/13 16:02:48;;;;;;;;;;;;;;;;;;5052692;28;1048;-74
2022/10/13 16:05:14;;;;;;;;;;;;;;;;;;5052717;28;1044;-75
2022/10/13 16:07:41;;;;;;;;;;;;;;;;;;5052263;28;1465;-72
2022/10/13 16:10:07;;;;;;;;;;;;;;;;;;5052376;28;1296;-74
2022/10/13 16:12:35;;;;;;;;;;;;;;;;;;5045286;28;1476;-74
2022/10/13 16:15:01;;;;;;;;;;;;;;;;;;5048681;28;1124;-72
2022/10/13 16:17:27;;;;;;;;;;;;;;;;;;5052602;28;1055;-73
2022/10/13 16:19:53;;;;;;;;;;;;;;;;;;5050390;28;1969;-73
2022/10/13 16:22:20;;;;;;;;;;;;;;;;;;5051753;28;1109;-75
2022/10/13 16:24:46;;;;;;;;;;;;;;;;;;5052056;28;854;-72
2022/10/13 16:27:12;;;;;;;;;;;;;;;;;;5051987;28;1071;-75
2022/10/13 16:29:40;;;;;;;;;;;;;;;;;;5049296;28;1667;-75
2022/10/13 16:32:06;;;;;;;;;;;;;;;;;;5049979;28;1191;-74
2022/10/13 16:34:32;;;;;;;;;;;;;;;;;;5050466;28;1100;-73
2022/10/13 16:36:58;;;;;;;;;;;;;;;;;;5050843;28;953;-74
2022/10/13 16:39:25;;;;;;;;;;;;;;;;;;5050713;28;1977;-73
2022/10/13 16:41:51;;;;;;;;;;;;;;;;;;5052797;28;1479;-74
2022/10/13 16:44:21;;;;;;;;;;;;;;;;;;5034589;28;986;-73
2022/10/13 16:46:51;;;;;;;;;;;;;;;;;;5035228;28;1398;-74
2022/10/13 16:49:17;;;;;;;;;;;;;;;;;;5048814;28;1462;-74
2022/10/13 16:51:43;;;;;;;;;;;;;;;;;;5049533;28;1324;-73
2022/10/13 16:54:09;;;;;;;;;;;;;;;;;;5041001;28;1173;-74
2022/10/13 16:56:36;;;;;;;;;;;;;;;;;;5030213;28;1122;-75
2022/10/13 16:59:03;;;;;;;;;;;;;;;;;;5031023;28;1273;-74
2022/10/13 17:01:30;;;;;;;;;;;;;;;;;;5028997;28;1985;-74
2022/10/13 17:03:57;;;;;;;;;;;;;;;;;;5045705;28;1361;-72
2022/10/13 17:06:24;;;;;;;;;;;;;;;;;;5049071;28;1437;-74
2022/10/13 17:08:56;;;;;;;;;;;;;;;;;;5041486;28;1456;-73